Time;durP1;ratioP1;P1;durP2;ratioP2;P2;SDS_P1;SDS_P2;PMS_P1;PMS_P2;Temp;Humidity;BMP_temperature;BMP_pressure;BME280_temperature;BME280_humidity;BME280_pressure;Samples;Min_cycle;Max_cycle;Signal;HPM_P1;HPM_P2
2024/01/02 00:01:20;;;;;;;12.33;8.50;;;6.40;99.90;;;;;;6220361;23;20083;-73
2024/01/02 00:03:46;;;;;;;12.90;7.97;;;6.40;99.90;;;;;;6247471;23;20004;-73
2024/01/02 00:06:15;;;;;;;12.27;8.27;;;6.40;99.90;;;;;;6247210;23;20075;-73
2024/01/02 00:08:42;;;;;;;12.93;7.30;;;6.40;99.90;;;;;;6247162;23;20326;-72
2024/01/02 00:11:09;;;;;;;13.07;8.37;;;6.40;99.90;;;;;;6247157;23;20003;-73
2024/01/02 00:13:35;;;;;;;14.13;8.20;;;6.40;99.90;;;;;;6246768;23;20439;-73
2024/01/02 00:16:01;;;;;;;12.53;6.57;;;6.40;99.90;;;;;;6246937;23;20488;-73
2024/01/02 00:18:26;;;;;;;10.77;7.17;;;6.40;99.90;;;;;;6246722;23;20008;-73
2024/01/02 00:20:52;;;;;;;8.90;4.97;;;6.30;99.90;;;;;;6247126;23;20003;-73
2024/01/02 00:23:18;;;;;;;9.27;4.60;;;6.30;99.90;;;;;;6247077;23;20000;-73
2024/01/02 00:25:44;;;;;;;7.63;5.00;;;6.30;99.90;;;;;;6247183;23;20007;-73
2024/01/02 00:28:11;;;;;;;8.17;5.87;;;6.30;99.90;;;;;;6246583;23;20003;-72
2024/01/02 00:30:39;;;;;;;12.50;6.93;;;6.30;99.90;;;;;;6247276;23;20000;-72
2024/01/02 00:33:06;;;;;;;8.63;5.97;;;6.30;99.90;;;;;;6247009;23;20016;-73
2024/01/02 00:35:32;;;;;;;8.67;5.63;;;6.30;99.90;;;;;;6246126;23;20004;-73
2024/01/02 00:37:58;;;;;;;8.97;5.37;;;6.20;99.90;;;;;;6246737;23;19996;-73
2024/01/02 00:40:23;;;;;;;6.77;4.03;;;6.30;99.90;;;;;;6246482;23;20026;-73
2024/01/02 00:42:49;;;;;;;8.10;3.93;;;6.20;99.90;;;;;;6246510;23;20004;-73
2024/01/02 00:45:15;;;;;;;7.43;4.27;;;6.20;99.90;;;;;;6247142;23;20000;-73
2024/01/02 00:47:41;;;;;;;6.77;4.73;;;6.20;99.90;;;;;;6247752;23;20003;-73
2024/01/02 00:50:07;;;;;;;8.07;4.73;;;6.10;99.90;;;;;;6247259;23;20449;-72
2024/01/02 00:52:33;;;;;;;6.90;4.57;;;6.10;99.90;;;;;;6247459;23;20091;-73
2024/01/02 01:02:07;;;;;;;5.28;3.88;;;6.00;99.90;;;;;;6095287;23;20017;-73
2024/01/02 01:08:46;;;;;;;6.47;4.10;;;5.90;99.90;;;;;;6037968;23;20014;-73
2024/01/02 01:11:12;;;;;;;6.33;4.23;;;5.90;99.90;;;;;;5921300;24;20088;-72
2024/01/02 01:13:38;;;;;;;7.30;4.43;;;5.90;99.90;;;;;;5952496;24;20026;-73
2024/01/02 01:16:05;;;;;;;8.87;5.03;;;5.90;99.90;;;;;;5953067;24;20011;-73
2024/01/02 01:18:31;;;;;;;12.83;6.47;;;5.90;99.90;;;;;;5977369;23;20020;-72
2024/01/02 01:20:57;;;;;;;10.60;7.30;;;5.80;99.90;;;;;;6032277;23;20653;-73
2024/01/02 01:23:23;;;;;;;10.27;6.93;;;5.80;99.90;;;;;;6232954;23;20008;-73
2024/01/02 01:25:48;;;;;;;13.73;7.97;;;5.80;99.90;;;;;;6246180;23;20030;-73
2024/01/02 01:28:14;;;;;;;13.07;7.97;;;5.80;99.90;;;;;;6246336;23;20000;-72
2024/01/02 01:30:40;;;;;;;14.00;8.10;;;5.80;99.90;;;;;;6246129;23;19997;-73
2024/01/02 01:33:07;;;;;;;12.53;7.40;;;5.80;99.90;;;;;;6245944;23;20012;-73
2024/01/02 01:35:33;;;;;;;11.37;7.13;;;5.80;99.90;;;;;;6246954;23;20000;-73
2024/01/02 01:37:59;;;;;;;12.47;8.07;;;5.80;99.90;;;;;;6246226;23;20373;-73
2024/01/02 01:40:24;;;;;;;11.60;7.40;;;5.70;99.90;;;;;;6246408;23;20000;-73
2024/01/02 01:42:50;;;;;;;10.73;7.27;;;5.60;99.90;;;;;;6246153;23;20008;-72
2024/01/02 01:45:18;;;;;;;11.10;7.93;;;5.60;99.90;;;;;;6246169;23;20000;-72
2024/01/02 01:47:45;;;;;;;10.40;7.83;;;5.50;99.90;;;;;;6246319;23;20004;-72
2024/01/02 01:50:12;;;;;;;12.37;7.57;;;5.50;99.90;;;;;;6245836;23;20479;-72
2024/01/02 01:52:38;;;;;;;11.57;7.67;;;5.40;99.90;;;;;;6245636;23;20040;-72
2024/01/02 01:55:05;;;;;;;10.33;6.87;;;5.30;99.90;;;;;;6246027;23;20500;-72
2024/01/02 01:57:31;;;;;;;15.47;7.17;;;5.40;99.90;;;;;;6245134;23;20333;-72
2024/01/02 01:59:57;;;;;;;9.77;6.63;;;5.40;99.90;;;;;;6242658;23;20079;-72
2024/01/02 02:02:23;;;;;;;9.80;6.33;;;5.40;99.90;;;;;;6242773;23;20000;-73
2024/01/02 02:04:50;;;;;;;12.17;7.40;;;5.40;99.90;;;;;;6244341;23;20004;-72
2024/01/02 02:07:16;;;;;;;9.40;6.67;;;5.40;99.90;;;;;;6245684;23;20007;-73
2024/01/02 02:09:41;;;;;;;7.97;6.07;;;5.30;99.90;;;;;;6246051;23;19996;-72
2024/01/02 02:12:07;;;;;;;12.40;7.03;;;5.30;99.90;;;;;;6245547;23;20004;-72
2024/01/02 02:14:33;;;;;;;8.93;6.47;;;5.20;99.90;;;;;;6218964;23;20319;-71
2024/01/02 02:17:00;;;;;;;12.20;6.93;;;5.20;99.90;;;;;;6246175;23;20031;-73
2024/01/02 02:19:26;;;;;;;13.10;6.83;;;5.10;99.90;;;;;;6246462;23;20334;-73
2024/01/02 02:21:55;;;;;;;14.30;7.17;;;5.10;99.90;;;;;;6245981;23;20016;-73
2024/01/02 02:24:24;;;;;;;12.43;6.87;;;5.00;99.90;;;;;;6246195;23;20011;-73
2024/01/02 02:27:23;;;;;;;11.10;7.27;;;5.00;99.90;;;;;;6246159;23;20008;-73
2024/01/02 02:33:52;;;;;;;12.23;7.00;;;5.00;99.90;;;;;;6085633;23;20029;-73
2024/01/02 02:36:18;;;;;;;10.97;7.30;;;4.90;99.90;;;;;;6093859;23;20002;-73
2024/01/02 02:38:47;;;;;;;9.97;6.63;;;4.90;99.90;;;;;;6094028;23;20081;-72
2024/01/02 02:41:27;;;;;;;10.57;6.43;;;5.00;99.90;;;;;;6183153;23;20001;-72
2024/01/02 02:44:12;;;;;;;9.23;6.03;;;5.00;99.90;;;;;;6245726;23;20334;-73
2024/01/02 02:47:08;;;;;;;9.73;6.43;;;5.00;99.90;;;;;;6245764;23;20004;-73
2024/01/02 02:49:34;;;;;;;13.10;5.83;;;5.00;99.90;;;;;;6245686;23;20391;-73
2024/01/02 02:52:00;;;;;;;10.63;6.37;;;5.00;99.90;;;;;;6245645;23;20334;-72
2024/01/02 02:54:26;;;;;;;7.83;5.37;;;5.00;99.90;;;;;;6245285;23;20012;-72
2024/01/02 02:56:52;;;;;;;9.37;5.90;;;5.00;99.90;;;;;;6245224;23;20001;-73
2024/01/02 02:59:18;;;;;;;9.30;5.90;;;5.00;99.90;;;;;;6244835;23;20046;-72
2024/01/02 03:01:44;;;;;;;9.10;5.70;;;4.90;99.90;;;;;;6245196;23;20003;-73
2024/01/02 03:04:09;;;;;;;7.47;5.23;;;5.00;99.90;;;;;;6245320;23;20004;-73
2024/01/02 03:06:35;;;;;;;7.20;5.43;;;5.00;99.90;;;;;;6245551;23;19996;-73
2024/01/02 03:09:01;;;;;;;7.33;4.87;;;4.90;99.90;;;;;;6218378;23;20004;-73
2024/01/02 03:11:27;;;;;;;9.67;4.87;;;4.90;99.90;;;;;;6245208;23;19996;-72
2024/01/02 03:13:52;;;;;;;12.27;5.90;;;4.90;99.90;;;;;;6244893;23;20015;-73
2024/01/02 03:16:19;;;;;;;8.37;5.17;;;4.90;99.90;;;;;;6245685;23;20001;-73
2024/01/02 03:18:45;;;;;;;8.37;4.93;;;5.00;99.90;;;;;;6245443;23;20423;-73
2024/01/02 03:21:11;;;;;;;8.90;5.27;;;5.00;99.90;;;;;;6245461;23;20001;-72
2024/01/02 03:23:37;;;;;;;8.70;4.90;;;5.00;99.90;;;;;;6245087;23;20015;-72
2024/01/02 03:26:04;;;;;;;7.00;4.77;;;5.00;99.90;;;;;;6245569;23;20427;-73
2024/01/02 03:28:31;;;;;;;8.53;5.13;;;5.00;99.90;;;;;;6245295;23;20014;-72
2024/01/02 03:30:57;;;;;;;11.03;5.00;;;4.90;99.90;;;;;;6244748;23;20046;-73
2024/01/02 03:33:23;;;;;;;9.47;5.40;;;4.90;99.90;;;;;;6244470;23;20035;-73
2024/01/02 03:35:49;;;;;;;6.93;4.50;;;4.90;99.90;;;;;;6244866;23;20004;-73
2024/01/02 03:38:15;;;;;;;6.93;4.80;;;4.90;99.90;;;;;;6244591;23;20057;-72
2024/01/02 03:40:41;;;;;;;7.90;4.60;;;4.90;99.90;;;;;;6245133;23;20008;-72
2024/01/02 03:43:07;;;;;;;7.83;4.77;;;4.80;99.90;;;;;;6245222;23;20075;-72
2024/01/02 03:45:33;;;;;;;8.47;5.17;;;4.80;99.90;;;;;;6245018;23;20005;-73
2024/01/02 03:48:00;;;;;;;8.10;5.57;;;4.80;99.90;;;;;;6217577;23;20327;-73
2024/01/02 03:50:26;;;;;;;8.13;5.23;;;4.80;99.90;;;;;;6244943;23;20042;-73
2024/01/02 03:52:52;;;;;;;8.17;5.00;;;4.70;99.90;;;;;;6245312;23;20004;-73
2024/01/02 03:55:18;;;;;;;6.63;4.57;;;4.80;99.90;;;;;;6245557;23;20383;-72
2024/01/02 03:57:44;;;;;;;6.83;4.90;;;4.80;99.90;;;;;;6245427;23;20331;-73
2024/01/02 04:03:52;;;;;;;7.97;5.30;;;4.70;99.90;;;;;;6093709;23;20046;-73
2024/01/02 04:07:19;;;;;;;7.20;5.07;;;4.70;99.90;;;;;;6093472;23;20438;-72
2024/01/02 04:13:30;;;;;;;7.17;4.73;;;4.70;99.90;;;;;;5980100;23;20371;-73
2024/01/02 04:16:20;;;;;;;6.40;4.53;;;4.60;99.90;;;;;;5981532;24;20015;-73
2024/01/02 04:18:45;;;;;;;6.93;4.43;;;4.60;99.90;;;;;;6085652;23;20011;-73
2024/01/02 04:21:32;;;;;;;7.77;5.03;;;4.60;99.90;;;;;;6178604;23;20004;-73
2024/01/02 04:23:59;;;;;;;7.77;4.83;;;4.60;99.90;;;;;;6213763;23;20347;-73
2024/01/02 04:26:25;;;;;;;7.67;5.20;;;4.50;99.90;;;;;;6213623;23;20360;-73
2024/01/02 04:28:53;;;;;;;8.03;5.20;;;4.50;99.90;;;;;;6188659;23;20335;-73
2024/01/02 04:31:19;;;;;;;10.57;4.83;;;4.40;99.90;;;;;;6245280;23;20036;-73
2024/01/02 04:33:45;;;;;;;8.60;5.03;;;4.40;99.90;;;;;;6219371;23;20012;-73
2024/01/02 04:36:11;;;;;;;7.33;4.57;;;4.40;99.90;;;;;;6246815;23;20011;-73
2024/01/02 04:38:37;;;;;;;8.07;5.00;;;4.40;99.90;;;;;;6247267;23;20012;-72
2024/01/02 04:41:03;;;;;;;8.33;4.60;;;4.50;99.90;;;;;;6246635;23;20038;-73
2024/01/02 04:43:29;;;;;;;8.67;5.10;;;4.50;99.90;;;;;;6194677;23;20445;-73
2024/01/02 04:45:55;;;;;;;7.60;5.17;;;4.40;99.90;;;;;;6246600;23;19988;-72
2024/01/02 04:48:21;;;;;;;9.23;4.80;;;4.40;99.90;;;;;;6246486;23;20422;-73
2024/01/02 04:50:48;;;;;;;8.33;4.57;;;4.40;99.90;;;;;;6246748;23;20005;-73
2024/01/02 04:53:13;;;;;;;7.53;4.90;;;4.40;99.90;;;;;;6246440;23;20008;-73
2024/01/02 04:55:39;;;;;;;7.83;4.90;;;4.40;99.90;;;;;;6245804;23;20082;-73
2024/01/02 04:58:05;;;;;;;8.00;4.87;;;4.50;99.90;;;;;;6246474;23;20000;-72
2024/01/02 05:00:31;;;;;;;8.00;4.70;;;4.40;99.90;;;;;;6245784;23;20028;-72
2024/01/02 05:02:57;;;;;;;6.10;4.20;;;4.50;99.90;;;;;;6245992;23;20004;-72
2024/01/02 05:05:23;;;;;;;7.73;4.40;;;4.50;99.90;;;;;;6246531;23;20031;-72
2024/01/02 05:07:49;;;;;;;6.03;4.57;;;4.50;99.90;;;;;;6219992;23;20004;-72
2024/01/02 05:10:15;;;;;;;7.73;4.50;;;4.50;99.90;;;;;;6246554;23;20012;-72
2024/01/02 05:12:41;;;;;;;6.37;4.27;;;4.50;99.90;;;;;;6246425;23;20015;-73
2024/01/02 05:15:07;;;;;;;6.83;4.17;;;4.60;99.90;;;;;;6246278;23;20016;-72
2024/01/02 05:17:33;;;;;;;5.50;4.07;;;4.50;99.90;;;;;;6246394;23;20043;-73
2024/01/02 05:19:59;;;;;;;10.73;4.20;;;4.60;99.90;;;;;;6246128;23;20000;-72
2024/01/02 05:22:25;;;;;;;6.80;3.80;;;4.60;99.90;;;;;;6245913;23;20083;-73
2024/01/02 05:24:50;;;;;;;8.23;3.37;;;4.60;99.90;;;;;;6246749;23;20023;-73
2024/01/02 05:27:17;;;;;;;6.10;3.97;;;4.60;99.90;;;;;;6220311;23;20385;-72
2024/01/02 05:29:43;;;;;;;7.13;3.60;;;4.70;99.90;;;;;;6247041;23;20004;-73
2024/01/02 05:32:09;;;;;;;5.87;3.40;;;4.70;99.90;;;;;;6219261;23;20415;-73
2024/01/02 05:35:15;;;;;;;5.50;3.47;;;4.70;99.90;;;;;;6246543;23;20004;-73
2024/01/02 05:38:13;;;;;;;5.30;3.70;;;4.70;99.90;;;;;;6246539;23;20035;-73
2024/01/02 05:48:13;;;;;;;5.03;3.20;;;4.60;99.90;;;;;;6094919;23;20443;-72
2024/01/02 05:54:00;;;;;;;3.83;2.70;;;4.50;99.90;;;;;;6065723;23;20071;-73
2024/01/02 05:56:44;;;;;;;3.93;3.03;;;4.50;99.90;;;;;;6039373;23;20074;-73
2024/01/02 05:59:10;;;;;;;3.93;2.53;;;4.50;99.90;;;;;;6037137;23;20011;-73
2024/01/02 06:01:37;;;;;;;4.00;2.50;;;4.60;99.90;;;;;;6057095;23;20013;-72
2024/01/02 06:04:03;;;;;;;6.20;2.83;;;4.60;99.90;;;;;;6065676;23;20393;-72
2024/01/02 06:06:29;;;;;;;5.03;2.60;;;4.50;99.90;;;;;;6150544;23;20012;-73
2024/01/02 06:08:55;;;;;;;7.10;2.30;;;4.50;99.90;;;;;;6239623;23;20501;-73
2024/01/02 06:11:20;;;;;;;3.60;2.30;;;4.60;99.90;;;;;;6215366;23;20465;-72
2024/01/02 06:13:46;;;;;;;3.23;1.80;;;4.60;99.90;;;;;;6215916;23;20016;-72
2024/01/02 06:16:12;;;;;;;4.57;2.30;;;4.60;99.90;;;;;;6214672;23;20024;-73
2024/01/02 06:18:38;;;;;;;5.70;2.60;;;4.70;99.90;;;;;;6215030;23;20005;-72
2024/01/02 06:21:04;;;;;;;3.20;2.00;;;4.70;99.90;;;;;;6215530;23;20076;-73
2024/01/02 06:23:33;;;;;;;7.13;2.77;;;4.70;99.90;;;;;;6215272;23;20132;-73
2024/01/02 06:26:00;;;;;;;6.07;3.53;;;4.80;99.90;;;;;;6215635;23;20472;-73
2024/01/02 06:28:25;;;;;;;6.10;3.93;;;4.70;99.90;;;;;;6214951;23;20446;-73
2024/01/02 06:30:51;;;;;;;5.63;3.43;;;4.80;99.90;;;;;;6215414;23;19997;-72
2024/01/02 06:33:17;;;;;;;8.07;3.67;;;4.70;99.90;;;;;;6215173;23;20013;-73
2024/01/02 06:35:43;;;;;;;7.03;4.10;;;4.70;99.90;;;;;;6215378;23;20093;-72
2024/01/02 06:38:09;;;;;;;8.87;5.57;;;4.70;99.90;;;;;;6215611;23;20054;-73
2024/01/02 06:40:39;;;;;;;10.63;6.37;;;4.80;99.90;;;;;;6215519;23;20000;-73
2024/01/02 06:43:04;;;;;;;14.03;7.93;;;4.70;99.90;;;;;;6188707;23;20312;-72
2024/01/02 06:45:31;;;;;;;18.10;9.57;;;4.70;99.90;;;;;;6215319;23;20051;-72
2024/01/02 06:47:57;;;;;;;18.63;7.80;;;4.70;99.90;;;;;;6215090;23;20415;-73
2024/01/02 06:50:23;;;;;;;15.43;7.83;;;4.70;99.90;;;;;;6215315;23;20001;-72
2024/01/02 06:52:49;;;;;;;21.50;10.57;;;4.70;99.90;;;;;;6215481;23;20075;-73
2024/01/02 06:55:15;;;;;;;18.40;10.27;;;4.70;99.90;;;;;;6233419;23;20016;-73
2024/01/02 06:57:41;;;;;;;9.67;5.57;;;4.70;99.90;;;;;;6245277;23;20003;-73
2024/01/02 07:00:07;;;;;;;7.60;5.13;;;4.80;99.90;;;;;;6245940;23;20087;-73
2024/01/02 07:02:33;;;;;;;6.73;4.77;;;4.80;99.90;;;;;;6246670;23;20405;-73
2024/01/02 07:05:03;;;;;;;7.73;4.67;;;4.90;99.90;;;;;;6246445;23;20030;-73
2024/01/02 07:07:45;;;;;;;8.50;4.63;;;4.80;99.90;;;;;;6246109;23;20008;-73
2024/01/02 07:10:52;;;;;;;7.40;4.40;;;4.80;99.90;;;;;;6245580;23;20019;-73
2024/01/02 07:16:53;;;;;;;7.38;4.60;;;4.80;99.90;;;;;;5952648;24;20013;-73
2024/01/02 07:19:25;;;;;;;9.77;5.10;;;4.90;99.90;;;;;;5952501;24;20015;-72
2024/01/02 07:22:41;;;;;;;10.00;5.10;;;4.90;99.90;;;;;;5952692;24;20427;-73
2024/01/02 07:29:26;;;;;;;9.47;4.50;;;4.90;99.90;;;;;;5993925;23;20087;-73
2024/01/02 07:32:11;;;;;;;8.93;4.40;;;4.90;99.90;;;;;;6000177;23;20020;-72
2024/01/02 07:34:37;;;;;;;6.23;4.00;;;4.90;99.90;;;;;;6045330;23;20431;-73
2024/01/02 07:37:03;;;;;;;10.70;4.43;;;4.90;99.90;;;;;;6148317;23;20079;-72
2024/01/02 07:39:29;;;;;;;8.27;5.20;;;4.90;99.90;;;;;;6245326;23;20359;-73
2024/01/02 07:41:55;;;;;;;9.27;5.67;;;4.90;99.90;;;;;;6245426;23;19996;-73
2024/01/02 07:44:22;;;;;;;10.47;5.30;;;5.00;99.90;;;;;;6219389;23;20034;-73
2024/01/02 07:46:47;;;;;;;8.37;5.57;;;5.00;99.90;;;;;;6220522;23;20331;-72
2024/01/02 07:49:13;;;;;;;6.67;4.90;;;5.10;99.90;;;;;;6246853;23;20011;-73
2024/01/02 07:51:39;;;;;;;6.93;5.07;;;5.10;99.90;;;;;;6246831;23;20072;-73
2024/01/02 07:54:05;;;;;;;8.53;5.20;;;5.10;99.90;;;;;;6244801;23;20019;-73
2024/01/02 07:56:33;;;;;;;8.40;5.67;;;5.10;99.90;;;;;;6242860;23;19996;-72
2024/01/02 07:58:59;;;;;;;6.77;4.90;;;5.20;99.90;;;;;;6243765;23;20008;-74
2024/01/02 08:01:25;;;;;;;7.40;4.90;;;5.20;99.90;;;;;;6244919;23;20000;-73
2024/01/02 08:03:50;;;;;;;8.17;4.67;;;5.20;99.90;;;;;;6246844;23;20000;-72
2024/01/02 08:06:16;;;;;;;7.27;4.77;;;5.20;99.90;;;;;;6246480;23;20004;-73
2024/01/02 08:08:42;;;;;;;7.20;4.93;;;5.30;99.90;;;;;;6246367;23;20012;-72
2024/01/02 08:11:08;;;;;;;7.63;4.83;;;5.30;99.90;;;;;;6247058;23;20075;-72
2024/01/02 08:13:34;;;;;;;7.00;4.80;;;5.30;99.90;;;;;;6246282;23;20012;-74
2024/01/02 08:16:03;;;;;;;7.73;5.40;;;5.30;99.90;;;;;;6245889;23;20445;-72
2024/01/02 08:18:30;;;;;;;5.93;4.17;;;5.40;99.90;;;;;;6243606;23;20061;-73
2024/01/02 08:20:56;;;;;;;9.40;4.50;;;5.40;99.90;;;;;;6242631;23;20001;-72
2024/01/02 08:23:22;;;;;;;6.77;4.73;;;5.50;99.90;;;;;;6241542;23;20008;-72
2024/01/02 08:25:49;;;;;;;7.73;5.00;;;5.60;99.90;;;;;;6245820;23;20006;-72
2024/01/02 08:28:15;;;;;;;8.00;5.50;;;5.70;99.90;;;;;;6244748;23;20010;-72
2024/01/02 08:30:41;;;;;;;12.30;6.60;;;5.70;99.90;;;;;;6245790;23;20000;-72
2024/01/02 08:33:06;;;;;;;12.57;6.27;;;5.80;99.90;;;;;;6246423;23;20457;-72
2024/01/02 08:35:33;;;;;;;9.90;6.50;;;5.80;99.90;;;;;;6246803;23;20004;-72
2024/01/02 08:38:06;;;;;;;10.87;6.23;;;5.90;99.90;;;;;;6218723;23;20103;-72
2024/01/02 08:40:50;;;;;;;10.45;5.80;;;6.00;99.90;;;;;;6246990;23;20004;-72
2024/01/02 08:46:06;;;;;;;5.77;3.40;;;6.10;99.90;;;;;;6225201;23;20438;-72
2024/01/02 08:48:35;;;;;;;8.53;3.70;;;6.20;99.90;;;;;;6246894;23;20004;-71
2024/01/02 08:54:46;;;;;;;4.40;3.07;;;6.30;99.90;;;;;;6058472;23;20485;-72
2024/01/02 08:57:12;;;;;;;6.50;4.03;;;6.30;99.90;;;;;;6066201;23;20014;-72
2024/01/02 08:59:41;;;;;;;9.83;5.03;;;6.40;99.90;;;;;;6094067;23;20653;-72
2024/01/02 09:02:10;;;;;;;11.83;5.63;;;6.40;99.90;;;;;;6094490;23;20011;-72
2024/01/02 09:04:36;;;;;;;8.57;5.33;;;6.50;99.90;;;;;;6094781;23;20007;-72
2024/01/02 09:07:12;;;;;;;;;;;;;;;;;;;;;
2024/01/02 09:09:38;;;;;;;12.47;5.73;;;6.60;99.90;;;;;;6092511;23;20520;-72
2024/01/02 09:12:06;;;;;;;10.03;6.27;;;6.70;99.90;;;;;;6181506;23;20032;-71
2024/01/02 09:14:35;;;;;;;12.90;5.37;;;6.80;99.90;;;;;;6215608;23;20331;-71
2024/01/02 09:17:01;;;;;;;7.80;5.07;;;6.90;99.90;;;;;;6215682;23;20004;-72
2024/01/02 09:19:26;;;;;;;9.40;4.53;;;6.90;99.90;;;;;;6215849;23;20079;-72
2024/01/02 09:21:52;;;;;;;10.57;4.10;;;7.00;99.90;;;;;;6215653;23;20001;-72
2024/01/02 09:24:20;;;;;;;6.70;4.47;;;7.00;99.90;;;;;;6215787;23;20054;-72
2024/01/02 09:26:48;;;;;;;11.13;3.97;;;7.00;99.90;;;;;;6215550;23;20386;-72
2024/01/02 09:29:14;;;;;;;7.93;4.67;;;7.10;99.90;;;;;;6215622;23;20442;-72
2024/01/02 09:31:43;;;;;;;10.27;4.40;;;7.20;99.90;;;;;;6215702;23;20004;-72
2024/01/02 09:34:10;;;;;;;6.90;4.17;;;7.20;99.90;;;;;;6215631;23;20016;-72
2024/01/02 09:36:36;;;;;;;7.60;4.10;;;7.30;99.90;;;;;;6215302;23;20000;-72
2024/01/02 09:39:02;;;;;;;6.53;3.70;;;7.40;99.90;;;;;;6215583;23;20079;-72
2024/01/02 09:41:46;;;;;;;10.07;4.77;;;7.40;99.90;;;;;;6215612;23;20435;-72
2024/01/02 09:44:45;;;;;;;8.47;4.07;;;7.40;99.90;;;;;;6215342;23;20104;-73
2024/01/02 09:47:38;;;;;;;8.77;4.07;;;7.50;99.90;;;;;;6214981;23;20457;-72
2024/01/02 09:50:04;;;;;;;;;;;7.60;99.90;;;;;;6215935;23;20424;-72
2024/01/02 09:52:48;;;;;;;6.47;4.23;;;7.60;99.90;;;;;;6215066;23;19900;-72
2024/01/02 09:55:34;;;;;;;6.03;3.77;;;7.60;99.90;;;;;;6229984;23;20027;-72
2024/01/02 09:58:21;;;;;;;6.37;4.13;;;7.70;99.90;;;;;;6245986;23;20004;-72
2024/01/02 10:00:52;;;;;;;6.80;4.53;;;7.70;99.90;;;;;;6243139;23;20000;-72
2024/01/02 10:03:32;;;;;;;8.53;3.97;;;7.80;99.90;;;;;;6245486;23;20000;-72
2024/01/02 10:06:26;;;;;;;6.40;3.93;;;7.80;99.90;;;;;;6245133;23;20007;-72
2024/01/02 10:09:22;;;;;;;9.50;4.70;;;7.90;99.90;;;;;;6244768;23;20058;-72
2024/01/02 10:12:20;;;;;;;13.77;4.80;;;7.90;99.90;;;;;;6246110;23;20077;-71
2024/01/02 10:15:00;;;;;;;9.43;4.63;;;8.00;99.90;;;;;;6245774;23;20087;-72
2024/01/02 10:17:42;;;;;;;6.63;4.57;;;8.10;99.90;;;;;;6245969;23;20310;-72
2024/01/02 10:20:42;;;;;;;10.13;5.50;;;8.10;99.90;;;;;;6245378;23;20369;-72
2024/01/02 10:23:36;;;;;;;8.53;5.00;;;8.10;99.90;;;;;;6218052;23;20035;-72
2024/01/02 10:26:20;;;;;;;10.93;4.83;;;8.20;99.90;;;;;;6245734;23;20000;-72
2024/01/02 10:29:03;;;;;;;11.83;5.40;;;8.20;99.90;;;;;;6245915;23;20327;-72
2024/01/02 10:35:11;;;;;;;9.40;5.47;;;8.40;99.90;;;;;;6182225;23;20370;-72
2024/01/02 10:38:18;;;;;;;9.30;4.70;;;8.50;99.90;;;;;;6181999;23;20008;-72
2024/01/02 10:41:35;;;;;;;7.10;4.60;;;8.50;99.90;;;;;;6182180;23;20441;-72
2024/01/02 10:44:36;;;;;;;12.47;5.20;;;8.50;99.90;;;;;;6171102;23;20001;-72
2024/01/02 10:47:20;;;;;;;7.93;5.03;;;8.60;99.90;;;;;;6245196;23;20390;-71
2024/01/02 10:49:59;;;;;;;10.80;5.57;;;8.60;99.90;;;;;;6246043;23;20373;-72
2024/01/02 10:52:41;;;;;;;9.23;6.10;;;8.60;99.90;;;;;;6246208;23;20004;-72
2024/01/02 10:55:31;;;;;;;8.15;5.65;;;8.60;99.90;;;;;;6245845;23;20337;-72
2024/01/02 10:58:28;;;;;;;9.40;5.90;;;8.70;99.90;;;;;;6244634;23;20318;-72
2024/01/02 11:01:06;;;;;;;9.80;6.13;;;8.70;99.90;;;;;;6244721;23;20347;-72
2024/01/02 11:03:55;;;;;;;9.60;6.07;;;8.70;99.90;;;;;;6243340;23;20331;-72
2024/01/02 11:06:34;;;;;;;10.73;6.20;;;8.70;99.90;;;;;;6243171;23;20418;-72
2024/01/02 11:09:00;;;;;;;11.90;7.27;;;8.70;99.90;;;;;;6216335;23;20014;-72
2024/01/02 11:11:27;;;;;;;11.60;7.00;;;8.80;99.90;;;;;;6242833;23;20004;-71
2024/01/02 11:13:54;;;;;;;14.33;6.97;;;8.70;99.90;;;;;;6243180;23;20012;-72
2024/01/02 11:16:22;;;;;;;10.83;6.30;;;8.80;99.90;;;;;;6244239;23;20004;-72
2024/01/02 11:18:52;;;;;;;10.70;6.97;;;8.80;99.90;;;;;;6244857;23;20442;-72
2024/01/02 11:21:17;;;;;;;8.27;6.13;;;8.70;99.90;;;;;;6245200;23;20446;-72
2024/01/02 11:23:46;;;;;;;9.00;5.93;;;8.70;99.90;;;;;;6245739;23;20034;-71
2024/01/02 11:26:25;;;;;;;10.03;6.70;;;8.80;99.90;;;;;;6245567;23;19997;-72
2024/01/02 11:28:58;;;;;;;7.83;5.43;;;8.80;99.90;;;;;;6245715;23;20071;-72
2024/01/02 11:31:26;;;;;;;9.47;6.20;;;8.80;99.90;;;;;;6245421;23;20046;-72
2024/01/02 11:34:23;;;;;;;10.53;6.63;;;8.80;99.90;;;;;;6245410;23;20066;-72
2024/01/02 11:37:08;;;;;;;10.03;6.17;;;8.90;99.90;;;;;;6245335;23;20054;-72
2024/01/02 11:39:57;;;;;;;9.27;6.47;;;9.00;99.90;;;;;;6245895;23;20087;-72
2024/01/02 11:42:49;;;;;;;9.77;6.20;;;9.00;99.90;;;;;;6245053;23;20000;-72
2024/01/02 11:45:25;;;;;;;8.95;5.78;;;9.10;99.90;;;;;;6245677;23;20023;-72
2024/01/02 11:48:26;;;;;;;8.50;6.70;;;9.20;99.90;;;;;;6218621;23;20000;-72
2024/01/02 11:50:54;;;;;;;9.07;5.80;;;9.30;99.90;;;;;;6245975;23;20055;-73
2024/01/02 11:53:51;;;;;;;10.67;6.47;;;9.40;99.90;;;;;;6242444;22;20282;-70
2024/01/02 11:56:18;;;;;;;12.57;6.97;;;9.40;99.90;;;;;;6214873;23;20040;-73
2024/01/02 11:59:18;;;;;;;9.27;6.47;;;9.50;99.90;;;;;;6214704;23;20024;-73
2024/01/02 12:01:50;;;;;;;9.47;6.33;;;9.60;99.90;;;;;;6214458;23;20009;-72
2024/01/02 12:04:34;;;;;;;13.05;7.35;;;9.60;99.90;;;;;;6214517;23;20398;-72
2024/01/02 12:07:10;;;;;;;13.83;7.10;;;9.60;99.90;;;;;;6188051;23;20008;-72
2024/01/02 12:09:48;;;;;;;13.30;8.17;;;9.70;99.90;;;;;;6214470;23;20000;-72
2024/01/02 12:12:31;;;;;;;11.50;6.87;;;9.70;99.90;;;;;;6214482;23;20060;-72
2024/01/02 12:15:15;;;;;;;11.13;6.63;;;9.70;99.90;;;;;;6214604;23;20012;-72
2024/01/02 12:17:54;;;;;;;12.97;7.53;;;9.70;99.90;;;;;;6213503;23;20005;-72
2024/01/02 12:20:23;;;;;;;16.53;8.60;;;9.70;99.90;;;;;;6214361;23;20004;-73
2024/01/02 12:22:49;;;;;;;17.33;8.90;;;9.70;99.90;;;;;;6214386;23;20001;-73
2024/01/02 12:25:15;;;;;;;15.73;9.40;;;9.70;99.90;;;;;;6214611;23;19997;-72
2024/01/02 12:27:45;;;;;;;15.67;8.70;;;9.70;99.90;;;;;;6214388;23;20054;-72
2024/01/02 12:30:21;;;;;;;15.10;9.37;;;9.80;99.90;;;;;;6215345;23;20438;-72
2024/01/02 12:33:05;;;;;;;16.53;8.73;;;9.80;99.90;;;;;;6215426;23;20016;-72
2024/01/02 12:35:34;;;;;;;16.90;9.43;;;9.80;99.90;;;;;;6215932;23;19996;-73
2024/01/02 12:38:15;;;;;;;15.43;9.40;;;9.70;99.90;;;;;;6216535;23;20032;-72
2024/01/02 12:40:53;;;;;;;20.70;11.00;;;9.80;99.90;;;;;;6216304;23;20004;-72
2024/01/02 12:43:20;;;;;;;20.23;11.63;;;9.80;99.90;;;;;;6189253;23;20004;-72
2024/01/02 12:45:59;;;;;;;18.30;10.27;;;9.90;99.90;;;;;;6215830;23;20008;-72
2024/01/02 12:48:28;;;;;;;17.63;10.90;;;9.90;99.90;;;;;;6216126;23;20076;-72
2024/01/02 12:50:57;;;;;;;16.20;9.00;;;9.90;99.90;;;;;;6215948;23;20001;-72
2024/01/02 12:53:29;;;;;;;16.33;9.30;;;10.00;99.90;;;;;;6219750;23;20024;-72
2024/01/02 12:55:57;;;;;;;12.77;7.97;;;10.00;99.90;;;;;;6246069;23;20390;-72
2024/01/02 12:58:30;;;;;;;14.63;7.47;;;10.10;99.90;;;;;;6243099;23;20015;-72
2024/01/02 13:00:58;;;;;;;14.20;7.77;;;10.10;99.90;;;;;;6242826;23;20014;-72
2024/01/02 13:03:24;;;;;;;9.53;6.13;;;10.00;99.90;;;;;;6243719;23;20434;-71
2024/01/02 13:05:50;;;;;;;7.70;5.30;;;10.00;99.90;;;;;;6245843;23;19997;-71
2024/01/02 13:08:18;;;;;;;6.68;4.43;;;10.10;99.90;;;;;;6245905;23;20019;-70
2024/01/02 13:10:45;;;;;;;6.90;4.53;;;10.10;99.90;;;;;;6246006;23;20499;-72
2024/01/02 13:13:14;;;;;;;8.77;4.63;;;10.10;99.90;;;;;;6246021;23;20020;-72
2024/01/02 13:15:42;;;;;;;5.13;3.27;;;10.10;99.90;;;;;;6246445;23;19996;-72
2024/01/02 13:18:09;;;;;;;4.67;3.00;;;10.00;99.90;;;;;;6246074;23;20004;-72
2024/01/02 13:20:35;;;;;;;4.63;2.70;;;10.00;99.90;;;;;;6245617;23;20010;-71
2024/01/02 13:23:04;;;;;;;4.27;2.67;;;10.00;99.90;;;;;;6246262;23;20028;-72
2024/01/02 13:25:39;;;;;;;3.70;2.33;;;10.00;99.90;;;;;;6244638;23;20036;-71
2024/01/02 13:28:24;;;;;;;7.40;3.87;;;10.00;99.90;;;;;;6218312;23;20000;-72
2024/01/02 13:30:51;;;;;;;4.23;2.40;;;10.00;99.90;;;;;;6218896;23;20011;-72
2024/01/02 13:33:18;;;;;;;5.47;2.63;;;10.00;99.90;;;;;;6245837;23;20083;-71
2024/01/02 13:35:47;;;;;;;4.77;2.77;;;9.90;99.90;;;;;;6245638;23;20430;-72
2024/01/02 13:38:18;;;;;;;4.85;2.63;;;9.90;99.90;;;;;;6245871;23;20370;-71
2024/01/02 13:40:44;;;;;;;4.43;3.30;;;9.90;99.90;;;;;;6245780;23;20001;-71
2024/01/02 13:43:11;;;;;;;5.53;3.45;;;9.90;99.90;;;;;;6245279;23;20023;-71
2024/01/02 13:45:37;;;;;;;5.37;2.90;;;9.90;99.90;;;;;;6245403;23;20071;-72
2024/01/02 13:48:16;;;;;;;5.90;3.23;;;9.90;99.90;;;;;;6242968;23;20088;-73
2024/01/02 13:50:43;;;;;;;4.20;2.77;;;9.80;99.90;;;;;;6215548;23;20012;-73
2024/01/02 13:53:09;;;;;;;4.57;2.77;;;9.80;99.90;;;;;;6244221;23;20012;-72
2024/01/02 13:55:37;;;;;;;4.63;2.57;;;9.80;99.90;;;;;;6245474;23;20058;-72
2024/01/02 13:58:14;;;;;;;6.33;2.93;;;9.70;99.90;;;;;;6246048;23;20027;-73
2024/01/02 14:00:46;;;;;;;4.50;3.00;;;9.70;99.90;;;;;;6246064;23;20372;-73
2024/01/02 14:03:19;;;;;;;5.03;3.50;;;9.70;99.90;;;;;;6246074;23;20067;-72
2024/01/02 14:05:57;;;;;;;4.40;2.93;;;9.60;99.90;;;;;;6244109;23;20445;-73
2024/01/02 14:08:28;;;;;;;4.57;3.40;;;9.60;99.90;;;;;;6244194;23;20012;-73